sensor_id;sensor_type;location;lat;lon;timestamp;P1;durP1;ratioP1;P2;durP2;ratioP2
40939;SDS011;26666;50.156;7.700;2023-04-01T00:04:37;0.75;;;0.00;;
40939;SDS011;26666;50.156;7.700;2023-04-01T00:09:39;0.20;;;0.00;;
40939;SDS011;26666;50.156;7.700;2023-04-01T00:14:41;1.25;;;0.00;;
40939;SDS011;26666;50.156;7.700;2023-04-01T00:19:44;0.63;;;0.00;;
40939;SDS011;26666;50.156;7.700;2023-04-01T00:24:46;1.95;;;0.00;;
40939;SDS011;26666;50.156;7.700;2023-04-01T00:29:47;2.20;;;0.10;;
40939;SDS011;26666;50.156;7.700;2023-04-01T00:34:51;0.98;;;0.10;;
40939;SDS011;26666;50.156;7.700;2023-04-01T00:39:53;1.98;;;0.05;;
40939;SDS011;26666;50.156;7.700;2023-04-01T00:44:55;2.38;;;0.00;;
40939;SDS011;26666;50.156;7.700;2023-04-01T00:49:58;1.98;;;0.17;;
40939;SDS011;26666;50.156;7.700;2023-04-01T00:55:01;0.75;;;0.10;;
40939;SDS011;26666;50.156;7.700;2023-04-01T01:00:06;1.20;;;0.32;;
40939;SDS011;26666;50.156;7.700;2023-04-01T01:10:15;3.22;;;0.10;;
40939;SDS011;26666;50.156;7.700;2023-04-01T01:15:20;1.80;;;0.10;;
40939;SDS011;26666;50.156;7.700;2023-04-01T01:20:42;3.72;;;0.10;;
40939;SDS011;26666;50.156;7.700;2023-04-01T01:25:57;0.25;;;0.10;;
40939;SDS011;26666;50.156;7.700;2023-04-01T01:31:12;1.45;;;0.00;;
40939;SDS011;26666;50.156;7.700;2023-04-01T01:36:22;4.80;;;0.10;;
40939;SDS011;26666;50.156;7.700;2023-04-01T01:41:30;4.25;;;0.08;;
40939;SDS011;26666;50.156;7.700;2023-04-01T01:46:33;1.13;;;0.00;;
40939;SDS011;26666;50.156;7.700;2023-04-01T01:51:38;0.45;;;0.00;;
40939;SDS011;26666;50.156;7.700;2023-04-01T01:56:40;1.80;;;0.03;;
40939;SDS011;26666;50.156;7.700;2023-04-01T02:01:45;2.00;;;0.00;;
40939;SDS011;26666;50.156;7.700;2023-04-01T02:11:56;0.68;;;0.10;;
40939;SDS011;26666;50.156;7.700;2023-04-01T02:17:02;0.25;;;0.00;;
40939;SDS011;26666;50.156;7.700;2023-04-01T02:22:10;0.15;;;0.00;;
40939;SDS011;26666;50.156;7.700;2023-04-01T02:27:17;0.17;;;0.00;;
40939;SDS011;26666;50.156;7.700;2023-04-01T02:32:18;0.98;;;0.00;;
40939;SDS011;26666;50.156;7.700;2023-04-01T02:37:23;1.35;;;0.10;;
40939;SDS011;26666;50.156;7.700;2023-04-01T02:42:24;3.20;;;0.05;;
40939;SDS011;26666;50.156;7.700;2023-04-01T02:47:26;0.30;;;0.00;;
40939;SDS011;26666;50.156;7.700;2023-04-01T02:52:29;1.08;;;0.17;;
40939;SDS011;26666;50.156;7.700;2023-04-01T02:57:31;1.33;;;0.17;;
40939;SDS011;26666;50.156;7.700;2023-04-01T03:02:33;2.08;;;0.20;;
40939;SDS011;26666;50.156;7.700;2023-04-01T03:07:36;0.90;;;0.00;;
40939;SDS011;26666;50.156;7.700;2023-04-01T03:12:38;2.50;;;0.10;;
40939;SDS011;26666;50.156;7.700;2023-04-01T03:17:40;1.00;;;0.10;;
40939;SDS011;26666;50.156;7.700;2023-04-01T03:22:44;0.82;;;0.00;;
40939;SDS011;26666;50.156;7.700;2023-04-01T03:27:45;1.73;;;0.00;;
40939;SDS011;26666;50.156;7.700;2023-04-01T03:32:47;0.45;;;0.00;;
40939;SDS011;26666;50.156;7.700;2023-04-01T03:37:51;2.65;;;0.10;;
40939;SDS011;26666;50.156;7.700;2023-04-01T03:42:53;0.45;;;0.08;;
40939;SDS011;26666;50.156;7.700;2023-04-01T03:47:55;1.25;;;0.08;;
40939;SDS011;26666;50.156;7.700;2023-04-01T03:52:58;2.03;;;0.00;;
40939;SDS011;26666;50.156;7.700;2023-04-01T03:58:00;1.13;;;0.63;;
40939;SDS011;26666;50.156;7.700;2023-04-01T04:03:02;0.20;;;0.00;;
40939;SDS011;26666;50.156;7.700;2023-04-01T04:08:05;1.60;;;0.00;;
40939;SDS011;26666;50.156;7.700;2023-04-01T04:13:07;0.10;;;0.00;;
40939;SDS011;26666;50.156;7.700;2023-04-01T04:18:09;0.10;;;0.00;;
40939;SDS011;26666;50.156;7.700;2023-04-01T04:23:12;0.00;;;0.00;;
40939;SDS011;26666;50.156;7.700;2023-04-01T04:28:13;0.00;;;0.00;;
40939;SDS011;26666;50.156;7.700;2023-04-01T04:33:15;0.80;;;0.00;;
40939;SDS011;26666;50.156;7.700;2023-04-01T04:38:18;0.20;;;0.00;;
40939;SDS011;26666;50.156;7.700;2023-04-01T04:43:20;0.47;;;0.00;;
40939;SDS011;26666;50.156;7.700;2023-04-01T04:48:22;0.00;;;0.00;;
40939;SDS011;26666;50.156;7.700;2023-04-01T04:53:25;0.00;;;0.00;;
40939;SDS011;26666;50.156;7.700;2023-04-01T04:58:27;1.98;;;0.00;;
40939;SDS011;26666;50.156;7.700;2023-04-01T05:03:28;0.75;;;0.10;;
40939;SDS011;26666;50.156;7.700;2023-04-01T05:08:32;1.65;;;0.00;;
40939;SDS011;26666;50.156;7.700;2023-04-01T05:13:34;0.00;;;0.00;;
40939;SDS011;26666;50.156;7.700;2023-04-01T05:18:35;0.90;;;0.00;;
40939;SDS011;26666;50.156;7.700;2023-04-01T05:23:39;0.20;;;0.10;;
40939;SDS011;26666;50.156;7.700;2023-04-01T05:28:40;0.00;;;0.00;;
40939;SDS011;26666;50.156;7.700;2023-04-01T05:33:42;0.30;;;0.00;;
40939;SDS011;26666;50.156;7.700;2023-04-01T05:38:45;1.13;;;0.00;;
40939;SDS011;26666;50.156;7.700;2023-04-01T05:43:47;0.00;;;0.00;;
40939;SDS011;26666;50.156;7.700;2023-04-01T05:48:49;0.00;;;0.00;;
40939;SDS011;26666;50.156;7.700;2023-04-01T05:53:52;1.90;;;0.00;;
40939;SDS011;26666;50.156;7.700;2023-04-01T05:58:54;0.00;;;0.00;;
40939;SDS011;26666;50.156;7.700;2023-04-01T06:03:55;0.10;;;0.00;;
40939;SDS011;26666;50.156;7.700;2023-04-01T06:09:01;0.00;;;0.00;;
40939;SDS011;26666;50.156;7.700;2023-04-01T06:14:16;0.30;;;0.00;;
40939;SDS011;26666;50.156;7.700;2023-04-01T06:19:31;0.00;;;0.00;;
40939;SDS011;26666;50.156;7.700;2023-04-01T06:24:41;0.75;;;0.00;;
40939;SDS011;26666;50.156;7.700;2023-04-01T06:29:54;0.08;;;0.00;;
40939;SDS011;26666;50.156;7.700;2023-04-01T06:35:16;0.00;;;0.00;;
40939;SDS011;26666;50.156;7.700;2023-04-01T06:40:28;0.00;;;0.00;;
40939;SDS011;26666;50.156;7.700;2023-04-01T06:45:44;0.00;;;0.00;;
40939;SDS011;26666;50.156;7.700;2023-04-01T06:50:55;0.00;;;0.00;;
40939;SDS011;26666;50.156;7.700;2023-04-01T06:56:04;0.00;;;0.00;;
40939;SDS011;26666;50.156;7.700;2023-04-01T07:01:10;0.10;;;0.00;;
40939;SDS011;26666;50.156;7.700;2023-04-01T07:06:16;0.00;;;0.00;;
40939;SDS011;26666;50.156;7.700;2023-04-01T07:11:29;1.00;;;0.00;;
40939;SDS011;26666;50.156;7.700;2023-04-01T07:16:34;0.00;;;0.00;;
40939;SDS011;26666;50.156;7.700;2023-04-01T07:21:41;0.20;;;0.00;;
40939;SDS011;26666;50.156;7.700;2023-04-01T07:26:48;0.00;;;0.00;;
40939;SDS011;26666;50.156;7.700;2023-04-01T07:32:03;0.00;;;0.00;;
40939;SDS011;26666;50.156;7.700;2023-04-01T07:37:15;0.00;;;0.00;;
40939;SDS011;26666;50.156;7.700;2023-04-01T07:42:27;0.00;;;0.00;;
40939;SDS011;26666;50.156;7.700;2023-04-01T07:47:41;0.00;;;0.00;;
40939;SDS011;26666;50.156;7.700;2023-04-01T07:52:59;0.00;;;0.00;;
40939;SDS011;26666;50.156;7.700;2023-04-01T07:58:12;0.15;;;0.00;;
40939;SDS011;26666;50.156;7.700;2023-04-01T08:03:31;0.30;;;0.08;;
40939;SDS011;26666;50.156;7.700;2023-04-01T08:08:43;0.00;;;0.00;;
40939;SDS011;26666;50.156;7.700;2023-04-01T08:13:58;0.00;;;0.00;;
40939;SDS011;26666;50.156;7.700;2023-04-01T08:19:09;2.45;;;0.00;;
40939;SDS011;26666;50.156;7.700;2023-04-01T08:24:24;0.00;;;0.00;;
40939;SDS011;26666;50.156;7.700;2023-04-01T08:29:49;0.00;;;0.00;;
40939;SDS011;26666;50.156;7.700;2023-04-01T08:34:58;0.00;;;0.00;;
40939;SDS011;26666;50.156;7.700;2023-04-01T08:40:16;0.00;;;0.00;;
40939;SDS011;26666;50.156;7.700;2023-04-01T08:56:36;0.00;;;0.00;;
40939;SDS011;26666;50.156;7.700;2023-04-01T09:07:29;0.25;;;0.00;;
40939;SDS011;26666;50.156;7.700;2023-04-01T09:12:48;2.90;;;0.00;;
40939;SDS011;26666;50.156;7.700;2023-04-01T09:23:37;0.00;;;0.00;;
40939;SDS011;26666;50.156;7.700;2023-04-01T09:28:50;2.65;;;0.00;;
40939;SDS011;26666;50.156;7.700;2023-04-01T09:34:07;0.00;;;0.00;;
40939;SDS011;26666;50.156;7.700;2023-04-01T09:39:26;0.00;;;0.00;;
40939;SDS011;26666;50.156;7.700;2023-04-01T09:44:38;0.30;;;0.00;;
40939;SDS011;26666;50.156;7.700;2023-04-01T09:49:59;0.00;;;0.00;;
40939;SDS011;26666;50.156;7.700;2023-04-01T09:55:23;0.15;;;0.10;;
40939;SDS011;26666;50.156;7.700;2023-04-01T10:00:52;0.00;;;0.00;;
40939;SDS011;26666;50.156;7.700;2023-04-01T10:06:09;0.00;;;0.00;;
40939;SDS011;26666;50.156;7.700;2023-04-01T10:17:14;0.00;;;0.00;;
40939;SDS011;26666;50.156;7.700;2023-04-01T10:22:47;0.05;;;0.00;;
40939;SDS011;26666;50.156;7.700;2023-04-01T10:28:04;0.00;;;0.00;;
40939;SDS011;26666;50.156;7.700;2023-04-01T10:56:17;0.00;;;0.00;;
40939;SDS011;26666;50.156;7.700;2023-04-01T11:13:27;0.00;;;0.00;;
40939;SDS011;26666;50.156;7.700;2023-04-01T11:24:35;0.00;;;0.00;;
40939;SDS011;26666;50.156;7.700;2023-04-01T11:30:03;0.43;;;0.00;;
40939;SDS011;26666;50.156;7.700;2023-04-01T11:35:30;0.00;;;0.00;;
40939;SDS011;26666;50.156;7.700;2023-04-01T11:40:45;0.00;;;0.00;;
40939;SDS011;26666;50.156;7.700;2023-04-01T11:45:53;0.00;;;0.00;;
40939;SDS011;26666;50.156;7.700;2023-04-01T11:51:07;0.20;;;0.00;;
40939;SDS011;26666;50.156;7.700;2023-04-01T11:56:24;0.00;;;0.00;;
40939;SDS011;26666;50.156;7.700;2023-04-01T12:01:47;0.10;;;0.00;;
40939;SDS011;26666;50.156;7.700;2023-04-01T12:06:58;0.15;;;0.00;;
40939;SDS011;26666;50.156;7.700;2023-04-01T12:12:14;0.00;;;0.00;;
40939;SDS011;26666;50.156;7.700;2023-04-01T12:17:28;0.00;;;0.00;;
40939;SDS011;26666;50.156;7.700;2023-04-01T12:22:42;0.08;;;0.08;;
40939;SDS011;26666;50.156;7.700;2023-04-01T12:27:59;0.00;;;0.00;;
40939;SDS011;26666;50.156;7.700;2023-04-01T12:33:16;0.15;;;0.00;;
40939;SDS011;26666;50.156;7.700;2023-04-01T12:38:31;0.00;;;0.00;;
40939;SDS011;26666;50.156;7.700;2023-04-01T13:00:36;0.43;;;0.10;;
40939;SDS011;26666;50.156;7.700;2023-04-01T13:11:25;0.00;;;0.00;;
40939;SDS011;26666;50.156;7.700;2023-04-01T13:16:39;0.30;;;0.00;;
40939;SDS011;26666;50.156;7.700;2023-04-01T13:21:51;0.17;;;0.05;;
40939;SDS011;26666;50.156;7.700;2023-04-01T13:27:00;0.00;;;0.00;;
40939;SDS011;26666;50.156;7.700;2023-04-01T13:32:12;0.85;;;0.10;;
40939;SDS011;26666;50.156;7.700;2023-04-01T13:37:48;0.40;;;0.10;;
40939;SDS011;26666;50.156;7.700;2023-04-01T13:43:10;0.00;;;0.00;;
40939;SDS011;26666;50.156;7.700;2023-04-01T13:48:26;3.35;;;0.30;;
40939;SDS011;26666;50.156;7.700;2023-04-01T13:53:50;0.50;;;0.30;;
40939;SDS011;26666;50.156;7.700;2023-04-01T13:59:29;0.00;;;0.00;;
40939;SDS011;26666;50.156;7.700;2023-04-01T14:04:53;0.00;;;0.00;;
40939;SDS011;26666;50.156;7.700;2023-04-01T14:10:16;0.00;;;0.00;;
40939;SDS011;26666;50.156;7.700;2023-04-01T14:15:27;0.10;;;0.00;;
40939;SDS011;26666;50.156;7.700;2023-04-01T14:31:31;1.63;;;0.35;;
40939;SDS011;26666;50.156;7.700;2023-04-01T14:36:43;0.68;;;0.20;;
40939;SDS011;26666;50.156;7.700;2023-04-01T14:41:58;0.17;;;0.10;;
40939;SDS011;26666;50.156;7.700;2023-04-01T14:52:59;0.40;;;0.22;;
40939;SDS011;26666;50.156;7.700;2023-04-01T14:58:13;0.10;;;0.10;;
40939;SDS011;26666;50.156;7.700;2023-04-01T15:03:19;0.00;;;0.00;;
40939;SDS011;26666;50.156;7.700;2023-04-01T15:08:27;0.35;;;0.20;;
40939;SDS011;26666;50.156;7.700;2023-04-01T15:13:48;0.00;;;0.00;;
40939;SDS011;26666;50.156;7.700;2023-04-01T15:19:09;0.47;;;0.40;;
40939;SDS011;26666;50.156;7.700;2023-04-01T15:24:22;6.00;;;2.17;;
40939;SDS011;26666;50.156;7.700;2023-04-01T15:29:29;3.97;;;2.25;;
40939;SDS011;26666;50.156;7.700;2023-04-01T15:34:42;9.65;;;4.07;;
40939;SDS011;26666;50.156;7.700;2023-04-01T15:39:55;6.30;;;2.35;;
40939;SDS011;26666;50.156;7.700;2023-04-01T15:45:15;2.03;;;0.93;;
40939;SDS011;26666;50.156;7.700;2023-04-01T15:50:40;0.45;;;0.45;;
40939;SDS011;26666;50.156;7.700;2023-04-01T15:56:07;0.70;;;0.40;;
40939;SDS011;26666;50.156;7.700;2023-04-01T16:01:21;3.08;;;2.15;;
40939;SDS011;26666;50.156;7.700;2023-04-01T16:06:37;3.85;;;2.50;;
40939;SDS011;26666;50.156;7.700;2023-04-01T16:11:57;0.28;;;0.20;;
40939;SDS011;26666;50.156;7.700;2023-04-01T16:17:09;0.00;;;0.00;;
40939;SDS011;26666;50.156;7.700;2023-04-01T16:22:26;0.25;;;0.10;;
40939;SDS011;26666;50.156;7.700;2023-04-01T16:27:36;1.88;;;0.25;;
40939;SDS011;26666;50.156;7.700;2023-04-01T16:32:43;2.95;;;0.47;;
40939;SDS011;26666;50.156;7.700;2023-04-01T16:37:53;0.30;;;0.20;;
40939;SDS011;26666;50.156;7.700;2023-04-01T16:43:06;1.48;;;0.25;;
40939;SDS011;26666;50.156;7.700;2023-04-01T16:48:15;0.82;;;0.30;;
40939;SDS011;26666;50.156;7.700;2023-04-01T16:53:25;1.65;;;0.50;;
40939;SDS011;26666;50.156;7.700;2023-04-01T16:58:41;1.15;;;0.45;;
40939;SDS011;26666;50.156;7.700;2023-04-01T17:04:00;0.55;;;0.10;;
40939;SDS011;26666;50.156;7.700;2023-04-01T17:09:14;0.17;;;0.15;;
40939;SDS011;26666;50.156;7.700;2023-04-01T17:14:28;0.43;;;0.00;;
40939;SDS011;26666;50.156;7.700;2023-04-01T17:19:45;1.15;;;0.30;;
40939;SDS011;26666;50.156;7.700;2023-04-01T17:25:00;0.75;;;0.20;;
40939;SDS011;26666;50.156;7.700;2023-04-01T17:35:37;1.02;;;0.00;;
40939;SDS011;26666;50.156;7.700;2023-04-01T17:40:48;0.17;;;0.10;;
40939;SDS011;26666;50.156;7.700;2023-04-01T17:46:03;0.38;;;0.20;;
40939;SDS011;26666;50.156;7.700;2023-04-01T17:51:23;0.10;;;0.10;;
40939;SDS011;26666;50.156;7.700;2023-04-01T17:56:34;1.08;;;0.10;;
40939;SDS011;26666;50.156;7.700;2023-04-01T18:01:49;0.20;;;0.00;;
40939;SDS011;26666;50.156;7.700;2023-04-01T18:07:09;0.10;;;0.10;;
40939;SDS011;26666;50.156;7.700;2023-04-01T18:12:29;0.03;;;0.03;;
40939;SDS011;26666;50.156;7.700;2023-04-01T18:17:42;0.25;;;0.05;;
40939;SDS011;26666;50.156;7.700;2023-04-01T18:22:53;1.00;;;0.10;;
40939;SDS011;26666;50.156;7.700;2023-04-01T18:28:07;0.00;;;0.00;;
40939;SDS011;26666;50.156;7.700;2023-04-01T18:33:21;0.10;;;0.00;;
40939;SDS011;26666;50.156;7.700;2023-04-01T18:38:28;0.00;;;0.00;;
40939;SDS011;26666;50.156;7.700;2023-04-01T18:48:47;0.43;;;0.00;;
40939;SDS011;26666;50.156;7.700;2023-04-01T18:59:01;0.85;;;0.10;;
40939;SDS011;26666;50.156;7.700;2023-04-01T19:04:14;0.30;;;0.10;;
40939;SDS011;26666;50.156;7.700;2023-04-01T19:09:23;0.17;;;0.00;;
40939;SDS011;26666;50.156;7.700;2023-04-01T19:14:27;1.47;;;0.00;;
40939;SDS011;26666;50.156;7.700;2023-04-01T19:19:48;0.00;;;0.00;;
40939;SDS011;26666;50.156;7.700;2023-04-01T19:25:02;0.00;;;0.00;;
40939;SDS011;26666;50.156;7.700;2023-04-01T19:30:20;1.10;;;0.10;;
40939;SDS011;26666;50.156;7.700;2023-04-01T19:35:32;0.35;;;0.00;;
40939;SDS011;26666;50.156;7.700;2023-04-01T19:40:43;0.10;;;0.10;;
40939;SDS011;26666;50.156;7.700;2023-04-01T19:45:54;4.28;;;0.10;;
40939;SDS011;26666;50.156;7.700;2023-04-01T19:51:06;0.00;;;0.00;;
40939;SDS011;26666;50.156;7.700;2023-04-01T19:56:12;0.00;;;0.00;;
40939;SDS011;26666;50.156;7.700;2023-04-01T20:01:20;0.10;;;0.00;;
40939;SDS011;26666;50.156;7.700;2023-04-01T20:06:44;1.55;;;0.10;;
40939;SDS011;26666;50.156;7.700;2023-04-01T20:11:57;0.20;;;0.10;;
40939;SDS011;26666;50.156;7.700;2023-04-01T20:17:11;0.10;;;0.10;;
40939;SDS011;26666;50.156;7.700;2023-04-01T20:22:27;0.22;;;0.00;;
40939;SDS011;26666;50.156;7.700;2023-04-01T20:27:41;0.20;;;0.00;;
40939;SDS011;26666;50.156;7.700;2023-04-01T20:32:57;0.05;;;0.00;;
40939;SDS011;26666;50.156;7.700;2023-04-01T20:44:04;0.35;;;0.10;;
40939;SDS011;26666;50.156;7.700;2023-04-01T20:54:39;4.85;;;0.10;;
40939;SDS011;26666;50.156;7.700;2023-04-01T21:11:03;0.50;;;0.10;;
40939;SDS011;26666;50.156;7.700;2023-04-01T21:16:15;0.38;;;0.10;;
40939;SDS011;26666;50.156;7.700;2023-04-01T21:21:31;0.47;;;0.10;;
40939;SDS011;26666;50.156;7.700;2023-04-01T21:26:48;2.33;;;0.10;;
40939;SDS011;26666;50.156;7.700;2023-04-01T21:32:11;0.20;;;0.10;;
40939;SDS011;26666;50.156;7.700;2023-04-01T21:37:41;3.20;;;0.10;;
40939;SDS011;26666;50.156;7.700;2023-04-01T21:43:02;2.05;;;0.10;;
40939;SDS011;26666;50.156;7.700;2023-04-01T21:59:38;3.23;;;0.00;;
40939;SDS011;26666;50.156;7.700;2023-04-01T22:04:58;0.10;;;0.00;;
40939;SDS011;26666;50.156;7.700;2023-04-01T22:10:10;0.00;;;0.00;;
40939;SDS011;26666;50.156;7.700;2023-04-01T22:15:25;3.33;;;0.10;;
40939;SDS011;26666;50.156;7.700;2023-04-01T22:20:47;0.00;;;0.00;;
40939;SDS011;26666;50.156;7.700;2023-04-01T22:25:56;0.20;;;0.00;;
40939;SDS011;26666;50.156;7.700;2023-04-01T22:31:05;3.92;;;0.00;;
40939;SDS011;26666;50.156;7.700;2023-04-01T22:36:13;0.08;;;0.00;;
40939;SDS011;26666;50.156;7.700;2023-04-01T22:41:28;1.55;;;0.10;;
40939;SDS011;26666;50.156;7.700;2023-04-01T22:46:44;0.00;;;0.00;;
40939;SDS011;26666;50.156;7.700;2023-04-01T22:51:56;1.13;;;0.15;;
40939;SDS011;26666;50.156;7.700;2023-04-01T22:57:05;0.25;;;0.10;;
40939;SDS011;26666;50.156;7.700;2023-04-01T23:02:13;0.10;;;0.10;;
40939;SDS011;26666;50.156;7.700;2023-04-01T23:07:23;1.55;;;0.20;;
40939;SDS011;26666;50.156;7.700;2023-04-01T23:12:33;0.10;;;0.10;;
40939;SDS011;26666;50.156;7.700;2023-04-01T23:23:05;0.10;;;0.00;;
40939;SDS011;26666;50.156;7.700;2023-04-01T23:28:25;1.00;;;0.10;;
40939;SDS011;26666;50.156;7.700;2023-04-01T23:33:54;0.20;;;0.20;;
40939;SDS011;26666;50.156;7.700;2023-04-01T23:38:58;0.20;;;0.10;;
40939;SDS011;26666;50.156;7.700;2023-04-01T23:44:05;0.10;;;0.00;;
40939;SDS011;26666;50.156;7.700;2023-04-01T23:49:13;0.08;;;0.08;;
40939;SDS011;26666;50.156;7.700;2023-04-01T23:54:17;0.30;;;0.10;;
40939;SDS011;26666;50.156;7.700;2023-04-01T23:59:27;0.20;;;0.20;;
